createdAt,value
2018-10-19T00:02:08.658Z,12.30
2018-10-19T00:04:36.772Z,12.30
2018-10-19T00:07:05.161Z,12.30
2018-10-19T00:09:33.364Z,12.30
2018-10-19T00:12:01.488Z,12.20
2018-10-19T00:14:29.545Z,12.20
2018-10-19T00:16:57.719Z,12.20
2018-10-19T00:19:25.775Z,12.20
2018-10-19T00:21:54.243Z,12.30
2018-10-19T00:24:22.310Z,12.20
2018-10-19T00:26:50.370Z,12.20
2018-10-19T00:29:18.414Z,12.20
2018-10-19T00:31:46.524Z,12.20
2018-10-19T00:34:14.798Z,12.20
2018-10-19T00:36:42.919Z,12.20
2018-10-19T00:39:12.392Z,12.20
2018-10-19T00:41:40.558Z,12.20
2018-10-19T00:44:08.628Z,12.20
2018-10-19T00:46:36.740Z,12.20
2018-10-19T00:49:05.679Z,12.20
2018-10-19T00:51:33.960Z,12.10
2018-10-19T00:54:02.035Z,12.10
2018-10-19T00:56:30.087Z,12.10
2018-10-19T00:58:58.156Z,12.00
2018-10-19T01:01:26.207Z,12.00
2018-10-19T01:03:54.247Z,12.00
2018-10-19T01:06:22.806Z,12.00
2018-10-19T01:08:50.920Z,12.00
2018-10-19T01:11:18.906Z,11.90
2018-10-19T01:13:46.954Z,11.80
2018-10-19T01:16:15.030Z,11.80
2018-10-19T01:18:43.052Z,11.80
2018-10-19T01:21:11.209Z,11.80
2018-10-19T01:23:39.164Z,11.80
2018-10-19T01:26:07.175Z,11.80
2018-10-19T01:28:35.434Z,11.70
2018-10-19T01:31:03.443Z,11.70
2018-10-19T01:33:31.495Z,11.70
2018-10-19T01:35:59.929Z,11.70
2018-10-19T01:38:27.938Z,11.60
2018-10-19T01:40:56.058Z,11.50
2018-10-19T01:43:24.123Z,11.50
2018-10-19T01:45:56.238Z,11.40
2018-10-19T01:48:24.723Z,11.40
2018-10-19T01:50:52.809Z,11.40
2018-10-19T01:53:20.811Z,11.30
2018-10-19T01:55:48.882Z,11.30
2018-10-19T01:58:17.384Z,11.30
2018-10-19T02:00:45.587Z,11.20
2018-10-19T02:03:13.773Z,11.20
2018-10-19T02:05:41.970Z,11.20
2018-10-19T02:08:10.870Z,11.20
2018-10-19T02:10:39.361Z,11.20
2018-10-19T02:13:07.919Z,11.20
2018-10-19T02:15:36.247Z,11.20
2018-10-19T02:18:04.732Z,11.20
2018-10-19T02:20:32.858Z,11.20
2018-10-19T02:23:01.113Z,11.20
2018-10-19T02:25:29.175Z,11.20
2018-10-19T02:27:57.340Z,11.20
2018-10-19T02:30:25.606Z,11.10
2018-10-19T02:32:53.643Z,11.10
2018-10-19T02:35:21.692Z,11.10
2018-10-19T02:37:50.147Z,11.10
2018-10-19T02:40:18.167Z,11.00
2018-10-19T02:42:46.201Z,11.00
2018-10-19T02:45:14.349Z,10.90
2018-10-19T02:47:42.323Z,10.80
2018-10-19T02:50:10.498Z,10.80
2018-10-19T02:52:39.485Z,10.80
2018-10-19T02:55:08.176Z,10.80
2018-10-19T02:57:36.262Z,10.70
2018-10-19T03:00:05.360Z,10.70
2018-10-19T03:02:33.398Z,10.70
2018-10-19T03:05:01.477Z,10.70
2018-10-19T03:07:29.478Z,10.70
2018-10-19T03:09:57.498Z,10.70
2018-10-19T03:12:25.511Z,10.70
2018-10-19T03:14:53.570Z,10.60
2018-10-19T03:17:21.613Z,10.60
2018-10-19T03:19:49.684Z,10.60
2018-10-19T03:22:17.982Z,10.50
2018-10-19T03:24:46.320Z,10.50
2018-10-19T03:27:14.374Z,10.60
2018-10-19T03:29:42.427Z,10.60
2018-10-19T03:32:10.467Z,10.50
2018-10-19T03:34:38.517Z,10.50
2018-10-19T03:37:06.786Z,10.50
2018-10-19T03:39:35.715Z,10.50
2018-10-19T03:42:04.419Z,10.40
2018-10-19T03:44:32.476Z,10.50
2018-10-19T03:47:00.521Z,10.50
2018-10-19T03:49:28.811Z,10.60
2018-10-19T03:51:56.863Z,10.60
2018-10-19T03:54:25.019Z,10.70
2018-10-19T03:56:53.324Z,10.70
2018-10-19T03:59:21.460Z,10.60
2018-10-19T04:01:49.529Z,10.70
2018-10-19T04:04:17.672Z,10.70
2018-10-19T04:06:45.759Z,10.60
2018-10-19T04:09:14.035Z,10.60
2018-10-19T04:11:42.299Z,10.60
2018-10-19T04:14:11.577Z,10.60
2018-10-19T04:16:39.753Z,10.60
2018-10-19T04:19:08.651Z,10.60
2018-10-19T04:21:36.669Z,10.50
2018-10-19T04:24:05.304Z,10.50
2018-10-19T04:26:33.381Z,10.50
2018-10-19T04:29:01.537Z,10.40
2018-10-19T04:31:29.500Z,10.40
2018-10-19T04:33:57.571Z,10.40
2018-10-19T04:36:25.595Z,10.40
2018-10-19T04:38:53.640Z,10.30
2018-10-19T04:41:22.047Z,10.20
2018-10-19T04:43:50.074Z,10.20
2018-10-19T04:46:18.157Z,10.20
2018-10-19T04:48:46.251Z,10.10
2018-10-19T04:51:14.360Z,10.10
2018-10-19T04:53:42.374Z,10.10
2018-10-19T04:56:10.826Z,10.10
2018-10-19T04:58:38.911Z,10.10
2018-10-19T05:01:07.012Z,10.20
2018-10-19T05:03:35.078Z,10.20
2018-10-19T05:06:04.173Z,10.30
2018-10-19T05:08:32.432Z,10.40
2018-10-19T05:11:00.671Z,10.40
2018-10-19T05:13:28.644Z,10.50
2018-10-19T05:15:56.678Z,10.50
2018-10-19T05:18:24.896Z,10.60
2018-10-19T05:20:53.119Z,10.60
2018-10-19T05:23:21.143Z,10.60
2018-10-19T05:25:49.731Z,10.60
2018-10-19T05:28:18.011Z,10.60
2018-10-19T05:30:46.175Z,10.60
2018-10-19T05:33:14.288Z,10.60
2018-10-19T05:35:42.353Z,10.50
2018-10-19T05:38:10.619Z,10.40
2018-10-19T05:40:38.985Z,10.40
2018-10-19T05:43:07.242Z,10.40
2018-10-19T05:45:35.331Z,10.40
2018-10-19T05:48:03.483Z,10.40
2018-10-19T05:50:31.527Z,10.40
2018-10-19T05:52:59.596Z,10.40
2018-10-19T05:55:27.763Z,10.40
2018-10-19T05:57:55.787Z,10.40
2018-10-19T06:00:23.836Z,10.30
2018-10-19T06:02:52.027Z,10.40
2018-10-19T06:05:20.047Z,10.40
2018-10-19T06:07:48.053Z,10.50
2018-10-19T06:10:16.528Z,10.50
2018-10-19T06:12:44.549Z,10.50
2018-10-19T06:15:12.790Z,10.50
2018-10-19T06:17:41.275Z,10.60
2018-10-19T06:20:09.336Z,10.60
2018-10-19T06:22:37.319Z,10.60
2018-10-19T06:25:05.355Z,10.60
2018-10-19T06:27:33.525Z,10.70
2018-10-19T06:30:01.535Z,10.70
2018-10-19T06:32:29.595Z,10.80
2018-10-19T06:34:57.661Z,10.80
2018-10-19T06:37:25.716Z,10.90
2018-10-19T06:39:53.768Z,11.00
2018-10-19T06:42:21.798Z,11.10
2018-10-19T06:44:50.057Z,11.10
2018-10-19T06:47:18.223Z,11.20
2018-10-19T06:49:46.215Z,11.40
2018-10-19T06:52:15.111Z,11.50
2018-10-19T06:54:43.679Z,11.50
2018-10-19T06:57:12.639Z,11.60
2018-10-19T06:59:40.697Z,11.70
2018-10-19T07:02:09.180Z,11.80
2018-10-19T07:04:37.342Z,11.90
2018-10-19T07:07:05.758Z,12.10
2018-10-19T07:09:33.891Z,12.00
2018-10-19T07:12:02.069Z,12.10
2018-10-19T07:14:30.126Z,12.20
2018-10-19T07:16:58.376Z,12.30
2018-10-19T07:19:26.407Z,12.50
2018-10-19T07:21:54.431Z,12.70
2018-10-19T07:24:22.540Z,12.70
2018-10-19T07:26:50.612Z,12.80
2018-10-19T07:29:18.617Z,12.80
2018-10-19T07:31:46.716Z,12.90
2018-10-19T07:34:15.497Z,12.90
2018-10-19T07:36:43.631Z,13.00
2018-10-19T07:39:12.027Z,13.10
2018-10-19T07:41:40.054Z,13.20
2018-10-19T07:44:08.152Z,13.40
2018-10-19T07:46:36.559Z,13.50
2018-10-19T07:49:04.615Z,13.70
2018-10-19T07:51:32.926Z,13.70
2018-10-19T07:54:01.388Z,13.80
2018-10-19T07:56:29.354Z,13.90
2018-10-19T07:58:57.428Z,14.20
2018-10-19T08:01:25.434Z,14.60
2018-10-19T08:03:53.545Z,15.00
2018-10-19T08:06:21.580Z,15.20
2018-10-19T08:08:49.631Z,15.40
2018-10-19T08:11:17.777Z,15.70
2018-10-19T08:13:46.637Z,16.10
2018-10-19T08:16:14.797Z,16.50
2018-10-19T08:18:42.888Z,16.90
2018-10-19T08:21:11.112Z,17.60
2018-10-19T08:23:39.502Z,18.30
2018-10-19T08:26:07.691Z,18.70
2018-10-19T08:28:35.839Z,18.40
2018-10-19T08:31:04.033Z,18.50
2018-10-19T08:33:32.088Z,18.30
2018-10-19T08:36:00.267Z,18.20
2018-10-19T08:38:28.504Z,18.30
2018-10-19T08:40:56.607Z,19.40
2018-10-19T08:43:31.441Z,21.10
2018-10-19T08:46:05.086Z,21.30
2018-10-19T08:48:33.705Z,21.20
2018-10-19T08:51:01.776Z,21.50
2018-10-19T08:53:30.088Z,21.80
2018-10-19T08:55:58.171Z,22.10
2018-10-19T08:58:26.564Z,21.90
2018-10-19T09:00:54.630Z,21.90
2018-10-19T09:03:22.765Z,22.00
2018-10-19T09:05:50.795Z,22.30
2018-10-19T09:08:18.821Z,22.60
2018-10-19T09:10:46.891Z,22.90
2018-10-19T09:13:15.004Z,23.20
2018-10-19T09:15:43.015Z,23.50
2018-10-19T09:18:11.378Z,23.70
2018-10-19T09:20:39.489Z,23.70
2018-10-19T09:23:07.562Z,23.90
2018-10-19T09:25:35.986Z,23.50
2018-10-19T09:28:04.024Z,23.30
2018-10-19T09:30:32.073Z,23.20
2018-10-19T09:33:00.247Z,23.00
2018-10-19T09:35:28.314Z,23.30
2018-10-19T09:37:56.348Z,23.60
2018-10-19T09:40:24.411Z,24.20
2018-10-19T09:42:52.444Z,24.30
2018-10-19T09:45:20.457Z,24.60
2018-10-19T09:47:48.858Z,25.10
2018-10-19T09:50:17.133Z,25.10
2018-10-19T09:52:45.183Z,25.00
2018-10-19T09:55:13.467Z,25.00
2018-10-19T09:57:41.506Z,25.00
2018-10-19T10:00:17.527Z,24.60
2018-10-19T10:02:46.189Z,23.80
2018-10-19T10:05:14.348Z,23.90
2018-10-19T10:07:42.324Z,24.00
2018-10-19T10:10:10.371Z,24.30
2018-10-19T10:12:38.418Z,24.20
2018-10-19T10:15:06.692Z,24.40
2018-10-19T10:17:34.710Z,24.10
2018-10-19T10:20:02.753Z,23.60
2018-10-19T10:22:30.871Z,23.30
2018-10-19T10:24:58.980Z,22.80
2018-10-19T10:27:26.969Z,22.10
2018-10-19T10:29:55.262Z,21.40
2018-10-19T10:32:23.329Z,20.80
2018-10-19T10:34:51.390Z,20.20
2018-10-19T10:37:20.131Z,19.60
2018-10-19T10:39:48.190Z,19.10
2018-10-19T10:42:16.288Z,18.60
2018-10-19T10:44:44.483Z,18.30
2018-10-19T10:47:15.992Z,17.80
2018-10-19T10:49:44.014Z,17.20
2018-10-19T10:52:20.494Z,16.70
2018-10-19T10:54:48.614Z,16.60
2018-10-19T10:57:16.694Z,16.30
2018-10-19T10:59:45.227Z,16.10
2018-10-19T11:02:16.835Z,16.00
2018-10-19T11:04:45.559Z,15.90
2018-10-19T11:07:14.238Z,15.70
2018-10-19T11:09:42.275Z,15.70
2018-10-19T11:12:10.320Z,15.70
2018-10-19T11:14:38.407Z,15.70
2018-10-19T11:17:07.891Z,15.60
2018-10-19T11:19:36.027Z,15.60
2018-10-19T11:22:04.217Z,15.40
2018-10-19T11:24:32.212Z,15.30
2018-10-19T11:27:00.391Z,15.20
2018-10-19T11:29:28.432Z,15.10
2018-10-19T11:31:56.501Z,15.10
2018-10-19T11:34:24.518Z,15.30
2018-10-19T11:36:52.537Z,15.20
2018-10-19T11:39:20.610Z,15.20
2018-10-19T11:41:49.601Z,15.10
2018-10-19T11:44:17.639Z,15.10
2018-10-19T11:46:46.386Z,15.20
2018-10-19T11:49:14.482Z,15.30
2018-10-19T11:51:43.844Z,15.30
2018-10-19T11:54:20.619Z,15.30
2018-10-19T11:56:59.378Z,15.40
2018-10-19T11:59:45.668Z,15.60
2018-10-19T12:02:18.665Z,15.60
2018-10-19T12:04:46.754Z,15.60
2018-10-19T12:07:14.964Z,15.60
2018-10-19T12:09:42.988Z,15.60
2018-10-19T12:12:11.649Z,15.30
2018-10-19T12:14:39.734Z,15.30
2018-10-19T12:17:07.813Z,15.20
2018-10-19T12:19:36.133Z,15.10
2018-10-19T12:22:04.203Z,15.00
2018-10-19T12:24:32.245Z,15.00
2018-10-19T12:27:00.360Z,15.00
2018-10-19T12:29:28.435Z,15.10
2018-10-19T12:31:56.458Z,15.20
2018-10-19T12:34:24.540Z,15.30
2018-10-19T12:36:52.640Z,15.50
2018-10-19T12:39:20.701Z,15.60
2018-10-19T12:41:48.735Z,15.60
2018-10-19T12:44:26.227Z,15.40
2018-10-19T12:47:05.594Z,15.30
2018-10-19T12:49:33.736Z,15.30
2018-10-19T12:52:02.681Z,15.20
2018-10-19T12:54:31.284Z,15.10
2018-10-19T12:56:59.260Z,15.20
2018-10-19T12:59:27.286Z,15.20
2018-10-19T13:01:55.590Z,15.20
2018-10-19T13:04:23.676Z,15.30
2018-10-19T13:06:51.711Z,15.20
2018-10-19T13:09:19.902Z,15.20
2018-10-19T13:11:47.935Z,15.20
2018-10-19T13:14:15.943Z,15.30
2018-10-19T13:16:44.299Z,15.50
2018-10-19T13:19:12.465Z,15.50
2018-10-19T13:21:40.415Z,15.50
2018-10-19T13:24:08.498Z,15.60
2018-10-19T13:26:36.635Z,15.40
2018-10-19T13:29:05.862Z,15.30
2018-10-19T13:31:34.369Z,15.30
2018-10-19T13:34:02.638Z,15.20
2018-10-19T13:36:30.688Z,15.00
2018-10-19T13:38:58.783Z,15.00
2018-10-19T13:41:27.094Z,14.90
2018-10-19T13:43:55.215Z,15.00
2018-10-19T13:46:23.435Z,15.00
2018-10-19T13:48:51.778Z,15.10
2018-10-19T13:51:19.847Z,15.10
2018-10-19T13:53:47.981Z,15.00
2018-10-19T13:56:16.241Z,15.00
2018-10-19T13:58:44.342Z,15.10
2018-10-19T14:01:12.450Z,15.10
2018-10-19T14:03:40.470Z,15.20
2018-10-19T14:06:08.572Z,15.20
2018-10-19T14:08:37.063Z,15.20
2018-10-19T14:11:05.236Z,15.20
2018-10-19T14:13:33.243Z,15.30
2018-10-19T14:16:01.487Z,15.30
2018-10-19T14:18:29.520Z,15.10
2018-10-19T14:20:57.541Z,15.10
2018-10-19T14:23:25.691Z,15.00
2018-10-19T14:25:53.762Z,15.00
2018-10-19T14:28:21.834Z,15.00
2018-10-19T14:30:49.882Z,15.00
2018-10-19T14:33:18.018Z,14.90
2018-10-19T14:35:46.163Z,15.00
2018-10-19T14:38:14.380Z,14.90
2018-10-19T14:40:42.404Z,14.90
2018-10-19T14:43:10.439Z,14.90
2018-10-19T14:45:38.571Z,14.90
2018-10-19T14:48:06.749Z,14.80
2018-10-19T14:50:34.784Z,14.80
2018-10-19T14:53:03.009Z,14.80
2018-10-19T14:55:30.991Z,14.70
2018-10-19T14:57:59.300Z,14.70
2018-10-19T15:00:27.608Z,14.60
2018-10-19T15:02:55.673Z,14.60
2018-10-19T15:05:23.795Z,14.50
2018-10-19T15:07:51.904Z,14.50
2018-10-19T15:10:21.288Z,14.50
2018-10-19T15:12:49.331Z,14.50
2018-10-19T15:15:19.730Z,14.50
2018-10-19T15:17:47.862Z,14.40
2018-10-19T15:20:16.447Z,14.40
2018-10-19T15:22:44.946Z,14.30
2018-10-19T15:25:13.161Z,14.30
2018-10-19T15:27:42.452Z,14.20
2018-10-19T15:30:12.154Z,14.20
2018-10-19T15:32:40.266Z,14.20
2018-10-19T15:35:08.686Z,14.10
2018-10-19T15:37:37.146Z,14.00
2018-10-19T15:40:06.510Z,14.00
2018-10-19T15:42:34.592Z,13.90
2018-10-19T15:45:02.648Z,13.90
2018-10-19T15:47:31.519Z,13.80
2018-10-19T15:49:59.551Z,13.80
2018-10-19T15:52:28.003Z,13.70
2018-10-19T15:55:02.729Z,13.60
2018-10-19T15:57:31.066Z,13.50
2018-10-19T15:59:59.358Z,13.50
2018-10-19T16:02:27.538Z,13.40
2018-10-19T16:04:55.754Z,13.30
2018-10-19T16:07:23.870Z,13.20
2018-10-19T16:09:51.963Z,13.10
2018-10-19T16:12:20.408Z,13.00
2018-10-19T16:14:48.423Z,12.90
2018-10-19T16:17:17.441Z,12.90
2018-10-19T16:19:45.518Z,12.80
2018-10-19T16:22:13.528Z,12.70
2018-10-19T16:24:41.705Z,12.70
2018-10-19T16:27:09.958Z,12.60
2018-10-19T16:29:37.978Z,12.60
2018-10-19T16:32:06.187Z,12.50
2018-10-19T16:34:34.268Z,12.40
2018-10-19T16:37:02.395Z,12.40
2018-10-19T16:39:30.509Z,12.30
2018-10-19T16:41:58.668Z,12.30
2018-10-19T16:44:26.869Z,12.20
2018-10-19T16:46:55.784Z,12.20
2018-10-19T16:49:24.061Z,12.20
2018-10-19T16:51:52.088Z,12.10
2018-10-19T16:54:20.122Z,12.00
2018-10-19T16:56:48.563Z,12.00
2018-10-19T16:59:16.601Z,12.00
2018-10-19T17:01:44.791Z,11.90
2018-10-19T17:04:12.952Z,11.80
2018-10-19T17:06:41.135Z,11.80
2018-10-19T17:09:10.599Z,11.70
2018-10-19T17:11:39.523Z,11.70
2018-10-19T17:14:07.818Z,11.70
2018-10-19T17:16:36.283Z,11.60
2018-10-19T17:19:04.439Z,11.60
2018-10-19T17:21:32.471Z,11.50
2018-10-19T17:24:00.569Z,11.50
2018-10-19T17:26:28.595Z,11.40
2018-10-19T17:28:56.701Z,11.40
2018-10-19T17:31:24.768Z,11.40
2018-10-19T17:33:53.119Z,11.40
2018-10-19T17:36:21.070Z,11.30
2018-10-19T17:38:49.087Z,11.30
2018-10-19T17:41:17.207Z,11.30
2018-10-19T17:43:45.477Z,11.30
2018-10-19T17:46:13.615Z,11.20
2018-10-19T17:48:41.953Z,11.10
2018-10-19T17:51:10.150Z,11.10
2018-10-19T17:53:38.152Z,11.10
2018-10-19T17:56:06.223Z,11.00
2018-10-19T17:58:34.313Z,11.00
2018-10-19T18:01:02.333Z,11.00
2018-10-19T18:03:30.582Z,10.90
2018-10-19T18:05:58.660Z,10.90
2018-10-19T18:08:26.713Z,10.80
2018-10-19T18:10:54.781Z,10.80
2018-10-19T18:13:22.804Z,10.80
2018-10-19T18:15:50.940Z,10.70
2018-10-19T18:18:19.215Z,10.70
2018-10-19T18:20:47.283Z,10.70
2018-10-19T18:23:15.639Z,10.60
2018-10-19T18:25:43.388Z,10.60
2018-10-19T18:28:11.403Z,10.60
2018-10-19T18:30:39.418Z,10.60
2018-10-19T18:33:07.467Z,10.50
2018-10-19T18:35:36.321Z,10.50
2018-10-19T18:38:04.381Z,10.40
2018-10-19T18:40:32.391Z,10.40
2018-10-19T18:43:00.415Z,10.40
2018-10-19T18:45:29.136Z,10.40
2018-10-19T18:47:57.184Z,10.30
2018-10-19T18:50:25.290Z,10.30
2018-10-19T18:52:53.318Z,10.30
2018-10-19T18:55:21.902Z,10.20
2018-10-19T18:57:49.886Z,10.20
2018-10-19T19:00:18.282Z,10.20
2018-10-19T19:02:47.415Z,10.10
2018-10-19T19:05:15.726Z,10.10
2018-10-19T19:07:43.742Z,10.10
2018-10-19T19:10:16.159Z,10.10
2018-10-19T19:12:44.190Z,10.00
2018-10-19T19:15:12.598Z,10.00
2018-10-19T19:17:40.942Z,10.00
2018-10-19T19:20:14.589Z,10.00
2018-10-19T19:22:43.391Z,10.00
2018-10-19T19:25:16.823Z,10.00
2018-10-19T19:27:45.048Z,9.90
2018-10-19T19:30:13.079Z,9.90
2018-10-19T19:32:46.620Z,9.90
2018-10-19T19:35:14.900Z,9.90
2018-10-19T19:37:42.859Z,9.80
2018-10-19T19:40:11.147Z,9.80
2018-10-19T19:42:45.455Z,9.80
2018-10-19T19:45:13.627Z,9.70
2018-10-19T19:47:47.203Z,9.70
2018-10-19T19:50:15.293Z,9.60
2018-10-19T19:52:43.251Z,9.60
2018-10-19T19:55:11.419Z,9.50
2018-10-19T19:57:39.929Z,9.50
2018-10-19T20:00:07.949Z,9.50
2018-10-19T20:02:36.179Z,9.50
2018-10-19T20:05:04.661Z,9.50
2018-10-19T20:07:32.800Z,9.40
2018-10-19T20:10:01.030Z,9.40
2018-10-19T20:12:29.114Z,9.40
2018-10-19T20:14:57.131Z,9.40
2018-10-19T20:17:25.315Z,9.30
2018-10-19T20:19:53.395Z,9.30
2018-10-19T20:22:21.479Z,9.30
2018-10-19T20:24:49.546Z,9.30
2018-10-19T20:27:17.744Z,9.20
2018-10-19T20:29:45.773Z,9.20
2018-10-19T20:32:13.886Z,9.20
2018-10-19T20:34:42.020Z,9.10
2018-10-19T20:37:10.299Z,9.10
2018-10-19T20:39:38.325Z,9.10
2018-10-19T20:42:06.844Z,9.00
2018-10-19T20:44:34.852Z,9.00
2018-10-19T20:47:02.942Z,9.00
2018-10-19T20:49:31.390Z,9.00
2018-10-19T20:51:59.422Z,9.00
2018-10-19T20:54:27.414Z,8.90
2018-10-19T20:56:55.688Z,8.90
2018-10-19T20:59:23.760Z,8.90
2018-10-19T21:01:51.826Z,8.90
2018-10-19T21:04:19.899Z,8.90
2018-10-19T21:06:47.971Z,8.90
2018-10-19T21:09:16.228Z,8.90
2018-10-19T21:11:44.520Z,8.90
2018-10-19T21:14:12.658Z,8.90
2018-10-19T21:16:40.628Z,8.90
2018-10-19T21:19:08.868Z,8.90
2018-10-19T21:21:36.813Z,8.80
2018-10-19T21:24:04.987Z,8.80
2018-10-19T21:26:32.990Z,8.70
2018-10-19T21:29:01.058Z,8.70
2018-10-19T21:31:29.007Z,8.60
2018-10-19T21:33:57.159Z,8.50
2018-10-19T21:36:25.377Z,8.50
2018-10-19T21:38:53.226Z,8.50
2018-10-19T21:41:21.575Z,8.40
2018-10-19T21:43:49.831Z,8.40
2018-10-19T21:46:17.818Z,8.40
2018-10-19T21:48:45.911Z,8.30
2018-10-19T21:51:13.927Z,8.20
2018-10-19T21:53:41.948Z,8.20
2018-10-19T21:56:10.039Z,8.20
2018-10-19T21:58:38.043Z,8.10
2018-10-19T22:01:06.096Z,8.10
2018-10-19T22:03:34.423Z,8.10
2018-10-19T22:06:02.745Z,8.00
2018-10-19T22:08:31.020Z,7.90
2018-10-19T22:10:59.479Z,8.00
2018-10-19T22:13:27.514Z,7.90
2018-10-19T22:15:55.515Z,7.90
2018-10-19T22:18:23.540Z,7.80
2018-10-19T22:20:51.578Z,7.80
2018-10-19T22:23:19.661Z,7.80
2018-10-19T22:25:47.722Z,7.70
2018-10-19T22:28:15.746Z,7.80
2018-10-19T22:30:43.747Z,7.70
2018-10-19T22:33:11.890Z,7.70
2018-10-19T22:35:39.905Z,7.70
2018-10-19T22:38:07.925Z,7.70
2018-10-19T22:40:36.124Z,7.70
2018-10-19T22:43:04.224Z,7.70
2018-10-19T22:45:32.251Z,7.70
2018-10-19T22:48:00.738Z,7.70
2018-10-19T22:50:28.880Z,7.70
2018-10-19T22:52:56.949Z,7.70
2018-10-19T22:55:25.110Z,7.70
2018-10-19T22:57:53.133Z,7.70
2018-10-19T23:00:21.180Z,7.70
2018-10-19T23:02:49.358Z,7.70
2018-10-19T23:05:18.013Z,7.70
2018-10-19T23:07:46.007Z,7.70
2018-10-19T23:10:14.102Z,7.70
2018-10-19T23:12:42.274Z,7.80
2018-10-19T23:15:10.312Z,7.70
2018-10-19T23:17:38.651Z,7.70
2018-10-19T23:20:07.488Z,7.70
2018-10-19T23:22:35.550Z,7.70
2018-10-19T23:25:04.070Z,7.70
2018-10-19T23:27:32.099Z,7.70
2018-10-19T23:30:00.176Z,7.70
2018-10-19T23:32:28.305Z,7.70
2018-10-19T23:34:56.476Z,7.70
2018-10-19T23:37:24.633Z,7.70
2018-10-19T23:39:52.758Z,7.60
2018-10-19T23:42:20.758Z,7.60
2018-10-19T23:44:48.811Z,7.60
2018-10-19T23:47:17.182Z,7.60
2018-10-19T23:49:45.635Z,7.50
2018-10-19T23:52:13.652Z,7.50
2018-10-19T23:54:41.812Z,7.50
2018-10-19T23:57:09.828Z,7.50
2018-10-19T23:59:37.911Z,7.50
